Time;durP1;ratioP1;P1;durP2;ratioP2;P2;SDS_P1;SDS_P2;PMS_P1;PMS_P2;Temp;Humidity;BMP_temperature;BMP_pressure;BME280_temperature;BME280_humidity;BME280_pressure;Samples;Min_cycle;Max_cycle;Signal;HPM_P1;HPM_P2
2023/03/28 00:01:54;;;;;;;6.15;4.07;;;153.60;2252.80;;;;;;5036930;28;20036;-83
2023/03/28 00:04:21;;;;;;;10.68;5.55;;;153.60;2252.80;;;;;;5036483;28;20024;-83
2023/03/28 00:06:52;;;;;;;5.82;3.60;;;153.60;2252.80;;;;;;5037074;28;20111;-83
2023/03/28 00:09:19;;;;;;;6.03;3.88;;;128.70;2252.80;;;;;;5037054;28;20528;-83
2023/03/28 00:11:45;;;;;;;6.97;4.22;;;153.60;2252.80;;;;;;5036702;28;20313;-81
2023/03/28 00:14:13;;;;;;;6.57;4.30;;;128.90;2252.80;;;;;;5036915;28;20025;-82
2023/03/28 00:16:44;;;;;;;7.55;5.22;;;153.60;2252.80;;;;;;5036862;28;20084;-82
2023/03/28 00:19:14;;;;;;;5.55;3.53;;;153.70;2252.80;;;;;;5036592;28;20544;-84
2023/03/28 00:21:45;;;;;;;7.43;3.80;;;153.80;2252.80;;;;;;5036713;28;20080;-85
2023/03/28 00:24:13;;;;;;;8.40;4.38;;;153.70;2252.80;;;;;;5036766;28;20053;-85
2023/03/28 00:26:40;;;;;;;7.05;3.67;;;153.80;2252.80;;;;;;5036366;28;20056;-82
2023/03/28 00:29:10;;;;;;;5.10;3.40;;;153.80;2252.80;;;;;;5034917;28;20029;-84
2023/03/28 00:31:37;;;;;;;5.53;3.67;;;154.00;2252.80;;;;;;5036022;28;20103;-85
2023/03/28 00:34:05;;;;;;;4.00;2.47;;;153.80;2252.80;;;;;;5035914;28;20048;-82
2023/03/28 00:36:31;;;;;;;6.43;3.83;;;153.80;2252.80;;;;;;5035938;28;20041;-81
2023/03/28 00:39:06;;;;;;;12.52;3.50;;;153.80;2252.80;;;;;;5036659;28;20143;-86
2023/03/28 00:41:34;;;;;;;7.75;3.50;;;153.70;2252.80;;;;;;5036699;28;20403;-84
2023/03/28 00:44:21;;;;;;;5.47;3.47;;;153.80;2252.80;;;;;;5036823;28;20025;-83
2023/03/28 00:46:46;;;;;;;8.48;4.32;;;153.70;2252.80;;;;;;5035808;28;20397;-85
2023/03/28 00:49:20;;;;;;;4.78;2.95;;;153.70;2252.80;;;;;;5036046;28;20025;-82
2023/03/28 00:51:55;;;;;;;5.40;3.28;;;153.80;2252.80;;;;;;5036305;28;20483;-86
2023/03/28 00:54:22;;;;;;;6.75;4.00;;;153.70;2252.80;;;;;;5035762;28;20025;-86
2023/03/28 00:56:52;;;;;;;6.35;2.88;;;153.70;2252.80;;;;;;5036359;28;20430;-86
2023/03/28 00:59:22;;;;;;;6.03;3.90;;;153.80;2252.80;;;;;;5036232;28;20440;-83
2023/03/28 01:01:48;;;;;;;5.43;3.00;;;153.80;2252.80;;;;;;5035865;28;20116;-85
2023/03/28 01:04:19;;;;;;;5.78;3.25;;;153.70;2252.80;;;;;;5036094;28;20068;-86
2023/03/28 01:06:48;;;;;;;4.45;2.80;;;153.80;2252.80;;;;;;5036059;28;20029;-83
2023/03/28 01:09:16;;;;;;;4.85;3.03;;;153.70;2252.80;;;;;;5035619;28;20029;-83
2023/03/28 01:11:44;;;;;;;4.38;3.03;;;153.80;2252.80;;;;;;5036262;28;20025;-85
2023/03/28 01:14:14;;;;;;;10.00;3.75;;;153.90;2252.80;;;;;;5037044;28;20028;-84
2023/03/28 01:16:41;;;;;;;5.20;3.05;;;153.80;2252.80;;;;;;5061012;28;20025;-84
2023/03/28 01:19:37;;;;;;;4.72;2.97;;;153.60;2252.80;;;;;;5061085;28;20020;-85
2023/03/28 01:22:12;;;;;;;6.35;4.50;;;153.60;2252.80;;;;;;5002810;28;20037;-83
2023/03/28 01:25:07;;;;;;;6.80;3.90;;;153.70;2252.80;;;;;;5035843;28;20027;-81
2023/03/28 01:27:51;;;;;;;6.57;2.90;;;153.80;2252.80;;;;;;5031821;28;20084;-80
2023/03/28 01:30:35;;;;;;;8.73;3.83;;;153.60;2252.80;;;;;;5015721;28;20369;-81
2023/03/28 01:33:23;;;;;;;6.28;3.50;;;153.60;2252.80;;;;;;5014889;28;20061;-80
2023/03/28 01:36:31;;;;;;;6.22;3.50;;;153.80;2252.80;;;;;;5015635;28;20022;-81
2023/03/28 01:39:28;;;;;;;8.13;4.22;;;153.70;2252.80;;;;;;5015987;28;20025;-82
2023/03/28 01:42:04;;;;;;;6.40;3.53;;;128.90;2252.80;;;;;;5015998;28;20056;-83
2023/03/28 01:45:07;;;;;;;5.55;3.50;;;153.70;2252.80;;;;;;5015650;28;20469;-82
2023/03/28 01:47:49;;;;;;;6.10;3.45;;;153.60;2252.80;;;;;;5015864;28;20029;-81
2023/03/28 01:50:36;;;;;;;9.52;4.55;;;153.60;2252.80;;;;;;5019584;28;20036;-79
2023/03/28 01:53:24;;;;;;;6.53;3.50;;;153.60;2252.80;;;;;;5019857;28;20026;-84
2023/03/28 01:55:51;;;;;;;5.53;3.20;;;128.80;2252.80;;;;;;5019631;28;20032;-82
2023/03/28 01:58:43;;;;;;;9.15;4.07;;;153.60;2252.80;;;;;;5026199;28;20082;-82
2023/03/28 02:01:18;;;;;;;12.13;6.40;;;153.60;2252.80;;;;;;5039344;28;20032;-82
2023/03/28 02:03:51;;;;;;;12.52;6.13;;;128.90;2252.80;;;;;;5038034;28;20071;-78
2023/03/28 02:06:20;;;;;;;10.30;5.25;;;128.90;2252.80;;;;;;5039241;28;20040;-81
2023/03/28 02:08:48;;;;;;;11.25;5.95;;;128.90;2252.80;;;;;;5039050;28;20461;-81
2023/03/28 02:11:13;;;;;;;6.30;3.88;;;128.90;2252.80;;;;;;5038935;28;20028;-82
2023/03/28 02:13:55;;;;;;;5.28;3.35;;;153.60;2252.80;;;;;;5039119;28;20029;-81
2023/03/28 02:16:23;;;;;;;5.05;3.75;;;153.60;2252.80;;;;;;5039219;28;20088;-82
2023/03/28 02:18:57;;;;;;;5.93;3.45;;;153.60;2252.80;;;;;;5038732;28;20357;-84
2023/03/28 02:21:29;;;;;;;4.75;2.90;;;153.70;2252.80;;;;;;5039094;28;20100;-83
2023/03/28 02:23:55;;;;;;;4.43;2.80;;;153.70;2252.80;;;;;;5039053;28;20036;-81
2023/03/28 02:26:23;;;;;;;5.68;3.00;;;153.60;2252.80;;;;;;5038858;28;20806;-83
2023/03/28 02:28:54;;;;;;;7.45;3.08;;;153.70;2252.80;;;;;;5038797;28;20108;-83
2023/03/28 02:31:22;;;;;;;6.00;3.47;;;153.60;2252.80;;;;;;5030775;28;20058;-85
2023/03/28 02:33:50;;;;;;;6.10;3.35;;;153.60;2252.80;;;;;;5015280;28;20058;-83
2023/03/28 02:36:34;;;;;;;7.00;4.40;;;153.70;2252.80;;;;;;5015553;28;20370;-84
2023/03/28 02:39:28;;;;;;;6.97;3.90;;;153.70;2252.80;;;;;;5015323;28;20030;-81
2023/03/28 02:42:15;;;;;;;4.30;2.67;;;153.80;2252.80;;;;;;5015769;28;20384;-84
2023/03/28 02:45:07;;;;;;;4.38;2.83;;;153.70;2252.80;;;;;;5015532;28;20034;-84
2023/03/28 02:47:47;;;;;;;5.10;3.10;;;153.60;2252.80;;;;;;4996430;28;20509;-83
2023/03/28 02:50:28;;;;;;;10.35;4.60;;;153.60;2252.80;;;;;;5014362;28;20041;-83
2023/03/28 02:53:07;;;;;;;9.38;5.50;;;153.70;2252.80;;;;;;5014927;28;20042;-84
2023/03/28 02:55:48;;;;;;;32.67;10.02;;;153.70;2252.80;;;;;;5014497;28;20022;-84
2023/03/28 02:58:26;;;;;;;11.80;5.03;;;153.70;2252.80;;;;;;5015181;28;20495;-83
2023/03/28 03:00:52;;;;;;;9.23;4.45;;;153.80;2252.80;;;;;;5014767;28;20521;-84
2023/03/28 03:03:18;;;;;;;15.90;5.65;;;153.80;2252.80;;;;;;5015177;28;20025;-83
2023/03/28 03:05:44;;;;;;;8.80;4.28;;;153.70;2252.80;;;;;;5015131;28;20125;-83
2023/03/28 03:08:10;;;;;;;13.38;4.45;;;153.70;2252.80;;;;;;5014798;28;20057;-86
2023/03/28 03:10:36;;;;;;;4.53;2.78;;;153.70;2252.80;;;;;;5015375;28;20052;-84
2023/03/28 03:13:02;;;;;;;6.55;3.30;;;128.90;2252.80;;;;;;5014987;28;20517;-84
2023/03/28 03:15:30;;;;;;;4.90;2.63;;;153.70;2252.80;;;;;;5014815;28;20025;-85
2023/03/28 03:17:57;;;;;;;9.32;4.07;;;128.90;2252.80;;;;;;5014843;28;20088;-82
2023/03/28 03:20:25;;;;;;;7.95;3.85;;;128.90;2252.80;;;;;;5014702;28;20504;-82
2023/03/28 03:22:52;;;;;;;6.55;3.45;;;128.80;2252.80;;;;;;5014906;28;20512;-83
2023/03/28 03:25:18;;;;;;;22.13;8.80;;;128.90;2252.80;;;;;;5014788;28;20461;-84
2023/03/28 03:27:44;;;;;;;6.40;3.53;;;128.90;2252.80;;;;;;5014582;28;20037;-84
2023/03/28 03:30:10;;;;;;;6.18;3.63;;;128.90;2252.80;;;;;;4996126;28;20109;-83
2023/03/28 03:32:38;;;;;;;3.65;2.33;;;128.90;2252.80;;;;;;5024870;28;20119;-81
2023/03/28 03:35:04;;;;;;;5.88;3.13;;;128.60;2252.80;;;;;;5034080;28;20029;-81
2023/03/28 03:37:30;;;;;;;4.78;3.05;;;128.80;2252.80;;;;;;5034248;28;20448;-84
2023/03/28 03:39:56;;;;;;;5.65;3.20;;;128.90;2252.80;;;;;;5034584;28;20029;-81
2023/03/28 03:42:21;;;;;;;6.10;3.40;;;153.70;2252.80;;;;;;5034399;28;20021;-84
2023/03/28 03:44:47;;;;;;;11.00;4.97;;;153.60;2252.80;;;;;;5034129;28;20025;-82
2023/03/28 03:47:16;;;;;;;6.00;3.47;;;128.90;2252.80;;;;;;5034187;28;20036;-82
2023/03/28 03:49:42;;;;;;;6.80;3.42;;;128.90;2252.80;;;;;;5033705;28;20057;-81
2023/03/28 03:52:08;;;;;;;7.25;3.35;;;128.90;2252.80;;;;;;5033930;28;20040;-83
2023/03/28 03:54:34;;;;;;;8.77;4.22;;;153.60;2252.80;;;;;;5033970;28;20115;-81
2023/03/28 03:57:01;;;;;;;8.15;4.15;;;153.60;2252.80;;;;;;5033542;28;20040;-85
2023/03/28 03:59:27;;;;;;;6.40;3.65;;;153.60;2252.80;;;;;;5033843;28;20033;-82
2023/03/28 04:01:54;;;;;;;5.55;3.30;;;153.60;2252.80;;;;;;5033849;28;20144;-84
2023/03/28 04:04:21;;;;;;;9.70;4.75;;;128.90;2252.80;;;;;;5033626;28;20033;-81
2023/03/28 04:06:47;;;;;;;7.30;3.33;;;128.80;2252.80;;;;;;5034175;28;20111;-80
2023/03/28 04:09:13;;;;;;;7.70;3.83;;;128.70;2252.80;;;;;;5034134;28;20064;-82
2023/03/28 04:11:38;;;;;;;6.72;3.88;;;128.60;2252.80;;;;;;5032757;28;20479;-82
2023/03/28 04:14:04;;;;;;;5.85;4.22;;;128.60;2252.80;;;;;;5033672;28;20112;-83
2023/03/28 04:16:33;;;;;;;5.22;3.22;;;128.60;2252.80;;;;;;5033167;28;20034;-81
2023/03/28 04:18:59;;;;;;;6.80;3.97;;;128.50;2252.80;;;;;;5034088;28;20465;-83
2023/03/28 04:21:29;;;;;;;5.18;2.95;;;128.60;2252.80;;;;;;5033711;28;20026;-83
2023/03/28 04:23:55;;;;;;;7.60;3.53;;;128.60;2252.80;;;;;;5033217;28;20112;-82
2023/03/28 04:26:27;;;;;;;5.38;3.10;;;128.50;2252.80;;;;;;5033752;28;20034;-80
2023/03/28 04:28:54;;;;;;;5.43;2.72;;;128.60;2252.80;;;;;;5033339;28;20022;-81
2023/03/28 04:31:28;;;;;;;7.25;3.40;;;128.60;2252.80;;;;;;5032791;28;20144;-82
2023/03/28 04:33:54;;;;;;;5.32;3.20;;;128.60;2252.80;;;;;;5033354;28;20025;-81
2023/03/28 04:36:21;;;;;;;5.75;3.60;;;128.70;2252.80;;;;;;5033196;28;20428;-83
2023/03/28 04:38:48;;;;;;;4.78;3.10;;;128.70;2252.80;;;;;;5032808;28;20029;-82
2023/03/28 04:41:15;;;;;;;7.40;5.32;;;128.60;2252.80;;;;;;5033122;28;20052;-80
2023/03/28 04:43:45;;;;;;;7.65;4.40;;;128.60;2252.80;;;;;;5033170;28;20037;-84
2023/03/28 04:46:10;;;;;;;6.85;3.88;;;128.50;2252.80;;;;;;5032962;28;20037;-82
2023/03/28 04:48:36;;;;;;;6.60;3.70;;;128.60;2252.80;;;;;;5033053;28;20388;-83
2023/03/28 04:51:02;;;;;;;10.25;6.05;;;128.50;2252.80;;;;;;5031447;28;20029;-83
2023/03/28 04:53:28;;;;;;;7.00;3.83;;;128.50;2252.80;;;;;;5032598;28;20527;-82
2023/03/28 04:55:54;;;;;;;9.48;5.00;;;128.40;2252.80;;;;;;5032311;28;20029;-82
2023/03/28 04:58:22;;;;;;;7.28;3.72;;;128.50;2252.80;;;;;;5031718;28;20116;-83
2023/03/28 05:00:48;;;;;;;7.38;3.83;;;128.40;2252.80;;;;;;5033114;28;20036;-83
2023/03/28 05:03:18;;;;;;;7.07;3.53;;;128.50;2252.80;;;;;;5033086;28;20029;-85
2023/03/28 05:05:48;;;;;;;6.28;3.70;;;128.50;2252.80;;;;;;5032663;28;20060;-81
2023/03/28 05:08:15;;;;;;;7.35;4.75;;;128.50;2252.80;;;;;;5032551;28;20079;-80
2023/03/28 05:10:43;;;;;;;5.70;3.47;;;128.50;2252.80;;;;;;5032625;28;20029;-81
2023/03/28 05:13:08;;;;;;;8.50;3.30;;;128.50;2252.80;;;;;;5032710;28;20021;-85
2023/03/28 05:15:34;;;;;;;7.35;4.15;;;128.60;2252.80;;;;;;5049778;28;20026;-82
2023/03/28 05:18:00;;;;;;;9.02;4.07;;;128.60;2252.80;;;;;;5032630;28;20428;-84
2023/03/28 05:20:27;;;;;;;6.07;2.95;;;128.60;2252.80;;;;;;5033593;28;20377;-82
2023/03/28 05:22:53;;;;;;;5.03;3.58;;;128.40;2252.80;;;;;;5032731;28;20026;-83
2023/03/28 05:25:20;;;;;;;5.00;3.35;;;128.40;2252.80;;;;;;5032540;28;20029;-81
2023/03/28 05:27:46;;;;;;;18.05;9.10;;;128.40;2252.80;;;;;;5032445;28;20060;-80
2023/03/28 05:30:12;;;;;;;9.18;5.72;;;128.50;2252.80;;;;;;5032443;28;20029;-82
2023/03/28 05:32:38;;;;;;;50.72;25.85;;;128.60;2252.80;;;;;;5016613;28;20053;-80
2023/03/28 05:35:06;;;;;;;13.75;8.05;;;128.70;2252.80;;;;;;5012260;28;20035;-84
2023/03/28 05:37:32;;;;;;;14.65;9.27;;;128.80;2252.80;;;;;;5012474;28;20057;-81
2023/03/28 05:39:58;;;;;;;52.88;35.10;;;128.70;2252.80;;;;;;5012570;28;20477;-85
2023/03/28 05:42:24;;;;;;;15.68;10.80;;;128.80;2252.80;;;;;;5012201;28;20033;-83
2023/03/28 05:44:50;;;;;;;10.50;6.65;;;128.80;2252.80;;;;;;5012668;28;20030;-85
2023/03/28 05:47:16;;;;;;;8.05;5.07;;;128.80;2252.80;;;;;;5012515;28;20088;-83
2023/03/28 05:49:42;;;;;;;6.57;4.88;;;128.70;2252.80;;;;;;5012182;28;20022;-84
2023/03/28 05:52:08;;;;;;;10.43;5.28;;;128.50;2252.80;;;;;;5012526;28;20052;-84
2023/03/28 05:54:33;;;;;;;10.90;6.20;;;128.80;2252.80;;;;;;5012069;28;20077;-81
2023/03/28 05:56:59;;;;;;;8.85;5.53;;;128.80;2252.80;;;;;;5012391;28;20038;-83
2023/03/28 05:59:26;;;;;;;7.47;3.97;;;128.70;2252.80;;;;;;5012421;28;20026;-82
2023/03/28 06:01:52;;;;;;;10.07;5.18;;;128.70;2252.80;;;;;;5011767;28;20026;-82
2023/03/28 06:04:20;;;;;;;7.68;4.43;;;128.70;2252.80;;;;;;5012290;28;20026;-80
2023/03/28 06:06:49;;;;;;;10.35;5.20;;;128.70;2252.80;;;;;;5012342;28;20050;-81
2023/03/28 06:09:15;;;;;;;10.13;6.00;;;128.70;2252.80;;;;;;5011956;28;20022;-81
2023/03/28 06:11:41;;;;;;;10.65;5.60;;;128.60;2252.80;;;;;;5012202;28;20033;-82
2023/03/28 06:14:08;;;;;;;13.73;8.48;;;128.70;2252.80;;;;;;5011686;28;20037;-82
2023/03/28 06:16:34;;;;;;;11.30;7.30;;;128.70;2252.80;;;;;;5011570;28;20064;-83
2023/03/28 06:19:00;;;;;;;7.85;4.63;;;128.70;2252.80;;;;;;5011505;28;20552;-84
2023/03/28 06:21:26;;;;;;;8.15;5.70;;;128.70;2252.80;;;;;;5012324;28;20121;-83
2023/03/28 06:23:52;;;;;;;10.10;5.50;;;128.60;2252.80;;;;;;5012107;28;20080;-81
2023/03/28 06:26:18;;;;;;;12.60;7.20;;;128.70;2252.80;;;;;;5012133;28;20025;-83
2023/03/28 06:28:44;;;;;;;6.47;4.35;;;128.70;2252.80;;;;;;5010335;28;20076;-82
2023/03/28 06:31:11;;;;;;;7.40;4.32;;;128.70;2252.80;;;;;;5019189;28;20551;-82
2023/03/28 06:33:40;;;;;;;6.88;4.30;;;128.60;2252.80;;;;;;5034501;28;20029;-82
2023/03/28 06:36:07;;;;;;;8.13;5.00;;;128.60;2252.80;;;;;;5056041;28;20427;-82
2023/03/28 06:38:33;;;;;;;7.85;5.25;;;128.70;2252.80;;;;;;5038394;28;20055;-83
2023/03/28 06:40:59;;;;;;;6.20;4.40;;;128.70;2252.80;;;;;;5038353;28;20029;-85
2023/03/28 06:43:25;;;;;;;6.38;4.85;;;128.80;2252.80;;;;;;5038480;28;20051;-83
2023/03/28 06:45:51;;;;;;;7.53;4.63;;;128.70;2252.80;;;;;;5038799;28;20150;-84
2023/03/28 06:48:17;;;;;;;8.20;4.80;;;128.90;2252.80;;;;;;5039396;28;20115;-83
2023/03/28 06:50:54;;;;;;;5.70;3.72;;;128.90;2252.80;;;;;;5038718;28;20124;-83
2023/03/28 06:53:19;;;;;;;8.98;4.50;;;128.80;2252.80;;;;;;5038448;28;20503;-82
2023/03/28 06:55:47;;;;;;;4.88;3.50;;;128.70;2252.80;;;;;;5038341;28;20052;-85
2023/03/28 06:58:13;;;;;;;8.18;5.53;;;128.70;2252.80;;;;;;5037600;28;20037;-81
2023/03/28 07:00:40;;;;;;;10.93;7.22;;;128.80;2252.80;;;;;;5038195;28;20021;-84
2023/03/28 07:03:05;;;;;;;12.75;7.00;;;128.90;2252.80;;;;;;5038304;28;20029;-85
2023/03/28 07:05:36;;;;;;;7.28;5.10;;;153.60;2252.80;;;;;;5037899;28;20114;-85
2023/03/28 07:08:02;;;;;;;9.35;6.00;;;153.60;2252.80;;;;;;5038212;28;20029;-84
2023/03/28 07:10:27;;;;;;;9.45;6.47;;;153.60;2252.80;;;;;;5038215;28;20032;-84
2023/03/28 07:12:53;;;;;;;12.50;8.60;;;128.90;2252.80;;;;;;5037949;28;20079;-81
2023/03/28 07:15:19;;;;;;;12.15;7.93;;;128.90;2252.80;;;;;;5038097;28;20371;-83
2023/03/28 07:17:45;;;;;;;14.13;8.10;;;128.90;2252.80;;;;;;5038144;28;20040;-82
2023/03/28 07:20:10;;;;;;;21.75;11.10;;;128.80;2252.80;;;;;;5037177;28;20039;-85
2023/03/28 07:22:36;;;;;;;17.17;9.50;;;128.90;2252.80;;;;;;5037854;28;20028;-85
2023/03/28 07:25:02;;;;;;;9.90;7.35;;;128.90;2252.80;;;;;;5037646;28;20063;-83
2023/03/28 07:27:28;;;;;;;18.92;8.85;;;128.90;2252.80;;;;;;5037656;28;20033;-82
2023/03/28 07:29:53;;;;;;;16.55;10.32;;;128.90;2252.80;;;;;;5037850;28;20025;-83
2023/03/28 07:32:19;;;;;;;12.25;8.57;;;128.90;2252.80;;;;;;5037301;28;20049;-82
2023/03/28 07:34:45;;;;;;;11.70;6.35;;;153.60;2252.80;;;;;;5037572;28;20052;-85
2023/03/28 07:37:11;;;;;;;7.85;5.05;;;153.70;2252.80;;;;;;5037655;28;20473;-85
2023/03/28 07:39:38;;;;;;;7.07;4.43;;;153.70;2252.80;;;;;;5037371;28;20029;-84
2023/03/28 07:42:09;;;;;;;10.02;6.78;;;153.70;2252.80;;;;;;5037621;28;20032;-83
2023/03/28 07:44:35;;;;;;;10.95;7.85;;;153.80;2252.80;;;;;;5037454;28;20025;-83
2023/03/28 07:47:01;;;;;;;7.72;5.97;;;153.80;2252.80;;;;;;5036362;28;20040;-85
2023/03/28 07:49:27;;;;;;;8.15;5.10;;;153.80;2252.80;;;;;;5037556;28;20025;-81
2023/03/28 07:51:52;;;;;;;8.95;6.28;;;153.60;2252.80;;;;;;5037475;28;20111;-82
2023/03/28 07:54:18;;;;;;;9.82;6.88;;;153.80;2252.80;;;;;;5037277;28;20025;-84
2023/03/28 07:56:45;;;;;;;8.05;5.30;;;153.60;2252.80;;;;;;5037468;28;20590;-84
2023/03/28 07:59:12;;;;;;;9.68;6.93;;;153.70;2252.80;;;;;;5036416;28;20139;-84
2023/03/28 08:01:43;;;;;;;9.93;6.50;;;153.90;2252.80;;;;;;5037408;28;20357;-85
2023/03/28 08:04:10;;;;;;;22.10;15.45;;;153.90;2252.80;;;;;;5036627;28;20032;-85
2023/03/28 08:06:39;;;;;;;8.40;6.32;;;154.00;2252.80;;;;;;5038233;28;20029;-85
2023/03/28 08:09:10;;;;;;;7.55;4.75;;;153.90;2252.80;;;;;;5037817;28;20036;-85
2023/03/28 08:11:37;;;;;;;6.88;5.47;;;154.00;2252.80;;;;;;5060272;28;20088;-83
2023/03/28 08:14:05;;;;;;;8.52;6.10;;;154.10;2252.80;;;;;;5062002;28;20096;-82
2023/03/28 08:16:31;;;;;;;9.70;5.65;;;154.20;2252.80;;;;;;5052156;28;20086;-87
2023/03/28 08:18:57;;;;;;;8.00;5.40;;;154.30;2252.80;;;;;;5037361;28;20036;-81
2023/03/28 08:21:24;;;;;;;8.05;5.40;;;154.30;2252.80;;;;;;5036483;28;20707;-82
2023/03/28 08:23:50;;;;;;;10.23;5.53;;;154.20;2201.60;;;;;;5037086;28;20044;-85
2023/03/28 08:26:16;;;;;;;6.57;4.43;;;154.10;2227.20;;;;;;5036695;28;20032;-85
2023/03/28 08:28:42;;;;;;;9.80;5.57;;;154.10;2201.60;;;;;;5036365;28;20380;-80
2023/03/28 08:31:13;;;;;;;5.97;4.50;;;154.10;2227.20;;;;;;5036657;28;20498;-83
2023/03/28 08:33:43;;;;;;;7.40;5.03;;;154.20;2227.20;;;;;;5036848;28;20036;-86
2023/03/28 08:36:13;;;;;;;7.35;4.80;;;154.20;2227.20;;;;;;5036681;28;20035;-82
2023/03/28 08:38:44;;;;;;;7.75;5.55;;;154.10;2201.60;;;;;;5037719;28;20068;-87
2023/03/28 08:41:44;;;;;;;6.82;4.93;;;154.20;2227.20;;;;;;5037296;28;20036;-80
2023/03/28 08:44:21;;;;;;;5.40;4.30;;;154.30;2176.00;;;;;;5036437;28;20029;-82
2023/03/28 08:46:55;;;;;;;8.98;5.13;;;154.10;2150.40;;;;;;5036305;28;20029;-83
2023/03/28 08:49:21;;;;;;;6.15;4.80;;;154.20;2150.40;;;;;;5036434;28;20094;-85
2023/03/28 08:51:59;;;;;;;6.45;5.10;;;154.30;2176.00;;;;;;5036424;28;20443;-87
2023/03/28 08:54:36;;;;;;;10.02;7.57;;;154.50;2201.60;;;;;;5036369;28;20040;-85
2023/03/28 08:57:09;;;;;;;12.63;7.45;;;179.20;2176.00;;;;;;5030404;28;20026;-89
2023/03/28 08:59:53;;;;;;;;;;;179.20;2150.40;;;;;;5033318;28;20025;-89
2023/03/28 09:02:21;;;;;;;9.98;6.35;;;179.20;2099.20;;;;;;5031807;28;19941;-89
2023/03/28 09:04:49;;;;;;;6.60;4.38;;;179.20;2176.00;;;;;;5051040;28;20475;-90
2023/03/28 09:07:35;;;;;;;7.28;5.45;;;179.20;2073.60;;;;;;5038951;28;20033;-88
2023/03/28 09:10:56;;;;;;;9.85;7.00;;;154.50;2073.60;;;;;;5034026;28;20062;-91
2023/03/28 09:13:49;;;;;;;12.25;7.15;;;179.20;2073.60;;;;;;5020657;28;20040;-89
2023/03/28 09:16:36;;;;;;;9.15;5.80;;;179.30;2124.80;;;;;;5036120;28;20029;-89
2023/03/28 09:19:26;;;;;;;9.23;5.38;;;179.40;2176.00;;;;;;5044734;28;20051;-90
2023/03/28 09:22:01;;;;;;;16.33;10.50;;;179.40;2176.00;;;;;;5022652;28;20024;-88
2023/03/28 09:24:53;;;;;;;12.38;8.05;;;179.40;2150.40;;;;;;5035780;28;20021;-89
2023/03/28 09:27:38;;;;;;;7.35;5.35;;;179.50;2124.80;;;;;;5028016;28;20091;-90
2023/03/28 09:30:35;;;;;;;7.32;5.75;;;179.70;2150.40;;;;;;5028716;28;20105;-89
2023/03/28 09:33:11;;;;;;;8.35;6.30;;;179.70;2099.20;;;;;;5015645;28;20480;-89
2023/03/28 09:35:39;;;;;;;7.47;5.82;;;179.80;2099.20;;;;;;5026418;28;20116;-87
2023/03/28 09:38:12;;;;;;;26.23;13.80;;;179.80;2073.60;;;;;;5047801;28;20048;-88
2023/03/28 09:40:42;;;;;;;10.52;7.38;;;180.10;2099.20;;;;;;5036250;28;20519;-88
2023/03/28 09:43:30;;;;;;;6.88;4.93;;;180.10;2073.60;;;;;;5036217;28;20461;-88
2023/03/28 09:46:07;;;;;;;8.80;6.65;;;180.10;2073.60;;;;;;5036111;28;20108;-90
2023/03/28 09:48:37;;;;;;;8.35;4.72;;;180.10;2048.00;;;;;;5054104;28;20022;-90
2023/03/28 09:51:05;;;;;;;9.38;6.60;;;204.80;2048.00;;;;;;5020519;28;20033;-89
2023/03/28 09:53:36;;;;;;;10.10;6.40;;;204.90;2073.60;;;;;;5035817;28;20507;-89
2023/03/28 09:56:27;;;;;;;7.85;5.30;;;204.90;2099.20;;;;;;5035775;28;20025;-88
2023/03/28 09:59:00;;;;;;;13.75;8.43;;;205.00;2099.20;;;;;;5036117;28;20437;-90
2023/03/28 10:01:47;;;;;;;8.73;6.38;;;205.10;2048.00;;;;;;5019281;28;20057;-86
2023/03/28 10:04:31;;;;;;;13.80;8.20;;;205.10;2048.00;;;;;;5026240;28;20029;-88
2023/03/28 10:07:09;;;;;;;9.90;6.30;;;205.20;2048.00;;;;;;5030791;28;20029;-86
2023/03/28 10:09:47;;;;;;;8.15;5.43;;;205.20;2022.40;;;;;;5020723;28;20029;-86
2023/03/28 10:12:34;;;;;;;7.70;4.57;;;205.20;2022.40;;;;;;5039079;28;20021;-87
2023/03/28 10:15:00;;;;;;;8.88;5.75;;;205.30;2022.40;;;;;;5023507;28;20017;-89
2023/03/28 10:17:35;;;;;;;12.00;8.73;;;205.40;1996.80;;;;;;5035634;28;20495;-85
2023/03/28 10:20:21;;;;;;;8.70;6.55;;;205.50;2073.60;;;;;;5027024;28;20021;-88
2023/03/28 10:22:50;;;;;;;10.73;5.10;;;205.30;1971.20;;;;;;5039382;28;20028;-88
2023/03/28 10:25:39;;;;;;;6.18;4.57;;;205.00;1996.80;;;;;;5039421;28;20033;-88
2023/03/28 10:28:07;;;;;;;8.18;4.75;;;205.10;2048.00;;;;;;5031016;28;20029;-87
2023/03/28 10:30:35;;;;;;;6.13;3.83;;;205.00;1996.80;;;;;;5031063;28;20107;-85
2023/03/28 10:33:20;;;;;;;11.02;6.38;;;205.10;2022.40;;;;;;5020116;28;20112;-88
2023/03/28 10:35:53;;;;;;;6.07;4.10;;;205.20;2099.20;;;;;;5020933;28;20021;-89
2023/03/28 10:38:19;;;;;;;;;;;205.10;1996.80;;;;;;5036004;28;20029;-87
2023/03/28 10:41:11;;;;;;;8.48;5.82;;;205.30;2022.40;;;;;;5035565;28;19958;-87
2023/03/28 10:43:41;;;;;;;13.27;8.75;;;205.50;1996.80;;;;;;5019479;28;20024;-86
2023/03/28 10:46:14;;;;;;;12.88;8.38;;;205.60;1996.80;;;;;;5035325;28;20026;-89
2023/03/28 10:48:45;;;;;;;6.55;3.65;;;205.60;1996.80;;;;;;5022067;28;20030;-88
2023/03/28 10:51:18;;;;;;;6.82;3.53;;;205.40;1971.20;;;;;;5015711;28;20022;-86
2023/03/28 10:53:48;;;;;;;6.10;4.45;;;205.40;1996.80;;;;;;5020630;28;20511;-86
2023/03/28 10:56:28;;;;;;;7.03;4.25;;;205.70;1971.20;;;;;;5031469;28;20377;-86
2023/03/28 10:59:12;;;;;;;6.68;4.80;;;230.50;1971.20;;;;;;5030484;28;20025;-89
2023/03/28 11:01:57;;;;;;;10.43;5.50;;;230.90;1945.60;;;;;;5038416;28;20034;-86
2023/03/28 11:05:02;;;;;;;11.30;6.10;;;230.80;1920.00;;;;;;5034721;28;20380;-86
2023/03/28 11:07:28;;;;;;;13.23;7.55;;;230.70;1920.00;;;;;;5030473;28;20030;-88
2023/03/28 11:09:57;;;;;;;11.18;7.90;;;230.40;1996.80;;;;;;5024251;28;20033;-86
2023/03/28 11:12:46;;;;;;;23.58;17.52;;;230.50;2073.60;;;;;;5034967;28;20029;-85
2023/03/28 11:15:29;;;;;;;7.78;4.95;;;205.60;1996.80;;;;;;4996094;28;20045;-83
2023/03/28 11:18:22;;;;;;;9.18;6.53;;;205.30;2022.40;;;;;;5023684;28;20029;-82
2023/03/28 11:21:06;;;;;;;6.68;4.28;;;205.40;2073.60;;;;;;5034791;28;20473;-79
2023/03/28 11:24:05;;;;;;;18.60;12.50;;;205.40;2073.60;;;;;;5020923;28;20515;-82
2023/03/28 11:27:02;;;;;;;8.43;5.60;;;230.90;2099.20;;;;;;5008998;28;20042;-81
2023/03/28 11:30:09;;;;;;;7.32;4.25;;;231.20;1996.80;;;;;;5020370;28;20388;-82
2023/03/28 11:32:46;;;;;;;8.35;4.40;;;230.80;1971.20;;;;;;4958549;28;20082;-81
2023/03/28 11:35:25;;;;;;;10.13;6.93;;;230.40;2073.60;;;;;;4987472;28;20042;-81
2023/03/28 11:38:03;;;;;;;7.28;4.18;;;230.40;2099.20;;;;;;5014046;28;20091;-81
2023/03/28 11:40:50;;;;;;;7.45;5.28;;;205.70;2099.20;;;;;;5014410;28;20029;-83
2023/03/28 11:43:42;;;;;;;14.60;10.90;;;230.60;2073.60;;;;;;4998458;28;20030;-83
2023/03/28 11:46:17;;;;;;;8.43;5.68;;;231.20;1996.80;;;;;;4999344;28;20045;-81
2023/03/28 11:48:42;;;;;;;9.38;5.82;;;256.60;1971.20;;;;;;5013734;28;20458;-83
2023/03/28 11:51:11;;;;;;;5.35;3.35;;;256.80;1868.80;;;;;;5000933;28;20087;-83
2023/03/28 11:53:42;;;;;;;7.50;4.45;;;256.50;1868.80;;;;;;5013252;28;20057;-84
2023/03/28 11:56:37;;;;;;;10.02;5.55;;;256.00;1920.00;;;;;;5012853;28;20061;-88
2023/03/28 11:59:11;;;;;;;5.28;3.63;;;231.10;1920.00;;;;;;5005378;28;20084;-82
2023/03/28 12:01:43;;;;;;;4.43;3.00;;;230.50;1920.00;;;;;;5012214;28;20064;-79
2023/03/28 12:04:30;;;;;;;18.27;8.52;;;205.60;2022.40;;;;;;5012449;28;20030;-79
2023/03/28 12:06:58;;;;;;;13.88;8.27;;;205.60;2022.40;;;;;;5015161;28;20034;-80
2023/03/28 12:09:39;;;;;;;38.03;19.15;;;230.40;2073.60;;;;;;5015968;28;20113;-83
2023/03/28 12:12:11;;;;;;;12.25;8.93;;;230.90;2022.40;;;;;;5013501;28;20085;-84
2023/03/28 12:14:56;;;;;;;17.73;10.70;;;231.30;1945.60;;;;;;5013665;28;20037;-82
2023/03/28 12:17:45;;;;;;;8.93;4.75;;;256.60;1945.60;;;;;;4998571;28;20421;-83
2023/03/28 12:20:16;;;;;;;6.28;3.35;;;281.80;1920.00;;;;;;5013306;28;20026;-84
2023/03/28 12:22:54;;;;;;;14.80;6.75;;;281.90;1817.60;;;;;;5014815;28;20029;-83
2023/03/28 12:25:34;;;;;;;9.43;4.65;;;282.30;1868.80;;;;;;4998315;28;20030;-84
2023/03/28 12:28:21;;;;;;;12.27;6.35;;;281.70;1868.80;;;;;;5013299;28;20084;-79
2023/03/28 12:31:04;;;;;;;10.80;6.25;;;256.40;1920.00;;;;;;5011972;28;20026;-80
2023/03/28 12:33:33;;;;;;;;;;;231.30;1971.20;;;;;;5036507;28;20028;-82
2023/03/28 12:36:11;;;;;;;8.50;5.47;;;256.30;1945.60;;;;;;5025168;28;19916;-84
2023/03/28 12:38:52;;;;;;;9.20;6.30;;;256.70;2048.00;;;;;;5031553;28;20037;-85
2023/03/28 12:41:23;;;;;;;20.85;13.77;;;256.90;2022.40;;;;;;5049436;28;20025;-84
2023/03/28 12:44:23;;;;;;;10.05;7.13;;;282.20;1996.80;;;;;;5025152;28;20464;-81